Nakhon Si Thammarat Airport
VTSF : now visible

Airfield :











YOU CAN JOIN US ON...

 
LOGIN :

Register | Disclaimer

   EN    FR    IT 

 









Legend :    VFR   Marginal VFR   IFR   Intensive IFR   Very Intensive IFR
Visi :
Ceiling :
>= 8 km
>= 3000ft
5 to 8 km
1000 to 3000 ft
1500m to 5 km
500 to 1000 ft
800 to 1500m
200 to 500 ft
< 800m
< 200 ft
Symbols :   Thunderstorms  Fog  Heavy snow  Heavy precipitations  Wind > 20 kt






- Airport Elevation : 13 ft
- IATA code : NST


VTSF - Nakhon Si Thammarat

CURRENT METAR :
  • 191200Z 26004KT 8000 -RA SCT018 SCT022 25/24 Q1010 RETS NOSIG

EXPIRED METARs :
  • 191100Z 06003KT 030V100 8000 -TSRA FEW016CB SCT018 BKN020 25/24 Q1009 RERA NOSIG
  • 191000Z 09008KT 1500 +RA FEW016CB BKN018 BKN020 27/24 Q1009 BECMG TL1030 8000 -RA

TAF TAF VTSF
Valid from the 19 at 12:00 until the 20 at 12:00 UTC


191100Z 1912/2012 31003KT 9999 SCT020 BKN100
TEMPO 1912/1918 09010G20KT 3000 TSRA FEW016CB SCT018 BKN100
TEMPO 1918/1924 3000 TSRA FEW016CB SCT018 BKN100
TEMPO 2000/2006 3000 TSRA FEW016CB SCT018 BKN100
TEMPO 2006/2012 09010G20KT 3000 TSRA FEW016CB SCT018 BKN100



MET'MAP, your aeronautical weather chart ! - Copyright ORBIFLY December 2007 - Disclaimer

ORBIFLY MET'MAP TEAM :

Programming & Development : Alexandra Zaïnal
Concept & Development : Baudouin d'Aumeries
Co-Development & Prog : Marc-Olivier Méhu
Technical & hardware support : Manuel Goepfert

Contact : metmap@orbifly.com




SOURCES & CREDITS :

   NOAA       Earth
Advisory